sensor_id;sensor_type;location;lat;lon;timestamp;pressure;altitude;pressure_sealevel;temperature;humidity
80164;BME280;70071;55.130;61.268;2024-01-10T00:01:55;96455.25;;;-9.44;39.84
80164;BME280;70071;55.130;61.268;2024-01-10T00:04:21;96453.69;;;-9.36;40.14
80164;BME280;70071;55.130;61.268;2024-01-10T00:06:47;96428.63;;;-9.43;39.83
80164;BME280;70071;55.130;61.268;2024-01-10T00:09:13;96310.53;;;-10.18;40.05
80164;BME280;70071;55.130;61.268;2024-01-10T00:11:39;96447.16;;;-9.40;39.82
80164;BME280;70071;55.130;61.268;2024-01-10T00:14:05;96422.78;;;-10.22;39.75
80164;BME280;70071;55.130;61.268;2024-01-10T00:16:31;96417.16;;;-9.60;40.02
80164;BME280;70071;55.130;61.268;2024-01-10T00:18:58;96331.16;;;-10.20;39.42
80164;BME280;70071;55.130;61.268;2024-01-10T00:21:24;96314.47;;;-10.46;39.23
80164;BME280;70071;55.130;61.268;2024-01-10T00:23:50;96370.13;;;-9.93;39.29
80164;BME280;70071;55.130;61.268;2024-01-10T00:26:16;96428.94;;;-9.58;39.19
80164;BME280;70071;55.130;61.268;2024-01-10T00:28:42;96405.44;;;-9.86;39.17
80164;BME280;70071;55.130;61.268;2024-01-10T00:31:08;96341.75;;;-10.13;39.88
80164;BME280;70071;55.130;61.268;2024-01-10T00:33:34;96422.28;;;-9.60;39.33
80164;BME280;70071;55.130;61.268;2024-01-10T00:36:00;96412.69;;;-9.91;39.72
80164;BME280;70071;55.130;61.268;2024-01-10T00:38:26;96425.59;;;-9.70;39.57
80164;BME280;70071;55.130;61.268;2024-01-10T00:40:52;96376.66;;;-10.22;39.38
80164;BME280;70071;55.130;61.268;2024-01-10T00:43:18;96412.66;;;-9.79;39.35
80164;BME280;70071;55.130;61.268;2024-01-10T00:45:44;96381.19;;;-10.25;39.76
80164;BME280;70071;55.130;61.268;2024-01-10T00:48:10;96417.88;;;-10.13;40.06
80164;BME280;70071;55.130;61.268;2024-01-10T00:50:36;96383.97;;;-10.17;39.91
80164;BME280;70071;55.130;61.268;2024-01-10T00:53:02;96384.13;;;-9.97;39.45
80164;BME280;70071;55.130;61.268;2024-01-10T00:55:27;96402.63;;;-9.83;39.47
80164;BME280;70071;55.130;61.268;2024-01-10T00:57:53;96380.63;;;-9.96;38.86
80164;BME280;70071;55.130;61.268;2024-01-10T01:00:19;96350.28;;;-10.12;39.19
80164;BME280;70071;55.130;61.268;2024-01-10T01:02:45;96404.34;;;-10.04;39.31
80164;BME280;70071;55.130;61.268;2024-01-10T01:05:11;96407.88;;;-9.84;39.67
80164;BME280;70071;55.130;61.268;2024-01-10T01:07:37;96307.03;;;-10.49;39.39
80164;BME280;70071;55.130;61.268;2024-01-10T01:10:04;96406.75;;;-9.91;40.55
80164;BME280;70071;55.130;61.268;2024-01-10T01:12:31;96349.97;;;-9.98;40.24
80164;BME280;70071;55.130;61.268;2024-01-10T01:14:57;96394.06;;;-10.04;39.41
80164;BME280;70071;55.130;61.268;2024-01-10T01:17:23;96304.81;;;-10.54;40.30
80164;BME280;70071;55.130;61.268;2024-01-10T01:19:49;96357.38;;;-10.05;39.50
80164;BME280;70071;55.130;61.268;2024-01-10T01:22:15;96285.13;;;-10.42;39.47
80164;BME280;70071;55.130;61.268;2024-01-10T01:24:41;96363.50;;;-9.96;39.66
80164;BME280;70071;55.130;61.268;2024-01-10T01:27:06;96270.91;;;-10.46;39.60
80164;BME280;70071;55.130;61.268;2024-01-10T01:29:32;96262.09;;;-10.53;39.00
80164;BME280;70071;55.130;61.268;2024-01-10T01:31:58;96312.50;;;-10.10;39.58
80164;BME280;70071;55.130;61.268;2024-01-10T01:34:24;96340.63;;;-10.20;39.75
80164;BME280;70071;55.130;61.268;2024-01-10T01:36:50;96294.81;;;-10.57;39.90
80164;BME280;70071;55.130;61.268;2024-01-10T01:39:18;96362.53;;;-9.84;39.76
80164;BME280;70071;55.130;61.268;2024-01-10T01:41:44;96297.59;;;-10.16;39.61
80164;BME280;70071;55.130;61.268;2024-01-10T01:44:10;96355.47;;;-10.03;39.58
80164;BME280;70071;55.130;61.268;2024-01-10T01:46:36;96306.66;;;-10.45;39.98
80164;BME280;70071;55.130;61.268;2024-01-10T01:49:03;96323.75;;;-10.78;40.14
80164;BME280;70071;55.130;61.268;2024-01-10T01:51:31;96305.50;;;-10.41;39.74
80164;BME280;70071;55.130;61.268;2024-01-10T01:53:58;96278.19;;;-10.74;39.42
80164;BME280;70071;55.130;61.268;2024-01-10T01:56:24;96341.56;;;-10.21;38.61
80164;BME280;70071;55.130;61.268;2024-01-10T01:58:51;96339.97;;;-10.01;38.60
80164;BME280;70071;55.130;61.268;2024-01-10T02:01:18;96279.63;;;-10.38;38.11
80164;BME280;70071;55.130;61.268;2024-01-10T02:03:47;96252.19;;;-10.58;38.25
80164;BME280;70071;55.130;61.268;2024-01-10T02:06:14;96328.69;;;-10.10;38.77
80164;BME280;70071;55.130;61.268;2024-01-10T02:08:39;96290.38;;;-10.44;38.87
80164;BME280;70071;55.130;61.268;2024-01-10T02:11:06;96305.91;;;-10.24;38.77
80164;BME280;70071;55.130;61.268;2024-01-10T02:13:33;96295.94;;;-10.39;38.67
80164;BME280;70071;55.130;61.268;2024-01-10T02:16:00;96291.53;;;-10.37;38.75
80164;BME280;70071;55.130;61.268;2024-01-10T02:18:26;96250.31;;;-10.56;37.70
80164;BME280;70071;55.130;61.268;2024-01-10T02:20:52;96308.75;;;-10.06;37.54
80164;BME280;70071;55.130;61.268;2024-01-10T02:23:18;96291.44;;;-10.25;37.01
80164;BME280;70071;55.130;61.268;2024-01-10T02:25:44;96258.28;;;-10.70;37.39
80164;BME280;70071;55.130;61.268;2024-01-10T02:28:11;96281.75;;;-10.43;37.20
80164;BME280;70071;55.130;61.268;2024-01-10T02:30:37;96294.50;;;-10.31;37.46
80164;BME280;70071;55.130;61.268;2024-01-10T02:33:04;96253.91;;;-11.02;37.39
80164;BME280;70071;55.130;61.268;2024-01-10T02:35:30;96295.28;;;-10.52;37.40
80164;BME280;70071;55.130;61.268;2024-01-10T02:37:59;96266.06;;;-10.72;36.65
80164;BME280;70071;55.130;61.268;2024-01-10T02:40:26;96246.31;;;-10.81;36.91
80164;BME280;70071;55.130;61.268;2024-01-10T02:42:52;96284.69;;;-10.59;35.97
80164;BME280;70071;55.130;61.268;2024-01-10T02:45:18;96179.91;;;-11.17;36.56
80164;BME280;70071;55.130;61.268;2024-01-10T02:47:44;96290.97;;;-10.63;36.16
80164;BME280;70071;55.130;61.268;2024-01-10T02:50:11;96279.47;;;-10.80;35.42
80164;BME280;70071;55.130;61.268;2024-01-10T02:52:37;96259.44;;;-10.63;36.39
80164;BME280;70071;55.130;61.268;2024-01-10T02:55:03;96275.88;;;-10.77;35.85
80164;BME280;70071;55.130;61.268;2024-01-10T02:57:30;96259.44;;;-10.63;35.91
80164;BME280;70071;55.130;61.268;2024-01-10T02:59:55;96269.91;;;-10.66;36.20
80164;BME280;70071;55.130;61.268;2024-01-10T03:02:21;96246.56;;;-11.07;36.35
80164;BME280;70071;55.130;61.268;2024-01-10T03:04:50;96244.97;;;-11.08;36.79
80164;BME280;70071;55.130;61.268;2024-01-10T03:07:16;96200.66;;;-11.43;36.10
80164;BME280;70071;55.130;61.268;2024-01-10T03:09:42;96252.28;;;-11.03;36.18
80164;BME280;70071;55.130;61.268;2024-01-10T03:12:10;96251.47;;;-11.38;36.41
80164;BME280;70071;55.130;61.268;2024-01-10T03:14:37;96207.50;;;-11.54;35.94
80164;BME280;70071;55.130;61.268;2024-01-10T03:17:03;96167.38;;;-11.54;35.93
80164;BME280;70071;55.130;61.268;2024-01-10T03:19:29;96236.31;;;-11.07;35.76
80164;BME280;70071;55.130;61.268;2024-01-10T03:21:54;96196.56;;;-11.45;36.68
80164;BME280;70071;55.130;61.268;2024-01-10T03:24:20;96264.25;;;-11.04;36.73
80164;BME280;70071;55.130;61.268;2024-01-10T03:26:49;96160.41;;;-11.74;36.42
80164;BME280;70071;55.130;61.268;2024-01-10T03:29:15;96255.75;;;-10.93;35.88
80164;BME280;70071;55.130;61.268;2024-01-10T03:31:41;96162.84;;;-11.73;36.10
80164;BME280;70071;55.130;61.268;2024-01-10T03:34:07;96261.72;;;-11.15;36.40
80164;BME280;70071;55.130;61.268;2024-01-10T03:36:33;96190.06;;;-11.72;37.04
80164;BME280;70071;55.130;61.268;2024-01-10T03:38:59;96213.66;;;-11.46;36.43
80164;BME280;70071;55.130;61.268;2024-01-10T03:41:26;96248.91;;;-11.61;36.16
80164;BME280;70071;55.130;61.268;2024-01-10T03:43:52;96152.31;;;-12.02;36.46
80164;BME280;70071;55.130;61.268;2024-01-10T03:46:18;96169.34;;;-11.91;36.20
80164;BME280;70071;55.130;61.268;2024-01-10T03:48:44;96203.66;;;-11.26;36.88
80164;BME280;70071;55.130;61.268;2024-01-10T03:51:15;96099.50;;;-12.15;37.05
80164;BME280;70071;55.130;61.268;2024-01-10T03:53:42;96141.47;;;-12.06;37.08
80164;BME280;70071;55.130;61.268;2024-01-10T03:56:09;96110.94;;;-12.54;37.09
80164;BME280;70071;55.130;61.268;2024-01-10T03:58:35;96207.03;;;-11.82;37.38
80164;BME280;70071;55.130;61.268;2024-01-10T04:01:05;96226.22;;;-11.65;37.19
80164;BME280;70071;55.130;61.268;2024-01-10T04:03:32;96236.00;;;-11.36;36.55
80164;BME280;70071;55.130;61.268;2024-01-10T04:05:59;96053.41;;;-12.24;36.43
80164;BME280;70071;55.130;61.268;2024-01-10T04:08:30;96110.69;;;-11.93;36.80
80164;BME280;70071;55.130;61.268;2024-01-10T04:10:56;96140.28;;;-12.24;37.15
80164;BME280;70071;55.130;61.268;2024-01-10T04:13:24;96131.81;;;-12.25;37.06
80164;BME280;70071;55.130;61.268;2024-01-10T04:15:50;96164.59;;;-11.85;36.09
80164;BME280;70071;55.130;61.268;2024-01-10T04:18:18;96179.50;;;-11.45;36.20
80164;BME280;70071;55.130;61.268;2024-01-10T04:20:47;96112.09;;;-12.00;36.92
80164;BME280;70071;55.130;61.268;2024-01-10T04:23:13;96087.53;;;-11.91;37.10
80164;BME280;70071;55.130;61.268;2024-01-10T04:25:39;96119.34;;;-11.62;36.55
80164;BME280;70071;55.130;61.268;2024-01-10T04:28:05;96179.94;;;-11.51;37.06
80164;BME280;70071;55.130;61.268;2024-01-10T04:30:31;96178.09;;;-11.71;36.39
80164;BME280;70071;55.130;61.268;2024-01-10T04:32:57;96093.94;;;-12.20;36.55
80164;BME280;70071;55.130;61.268;2024-01-10T04:35:23;96114.63;;;-12.00;36.82
80164;BME280;70071;55.130;61.268;2024-01-10T04:37:49;96120.06;;;-11.71;36.09
80164;BME280;70071;55.130;61.268;2024-01-10T04:40:15;96174.66;;;-11.15;36.45
80164;BME280;70071;55.130;61.268;2024-01-10T04:42:41;96088.69;;;-11.84;36.17
80164;BME280;70071;55.130;61.268;2024-01-10T04:45:07;96123.19;;;-11.56;36.38
80164;BME280;70071;55.130;61.268;2024-01-10T04:47:33;96148.78;;;-11.79;35.88
80164;BME280;70071;55.130;61.268;2024-01-10T04:49:59;96000.41;;;-12.79;35.75
80164;BME280;70071;55.130;61.268;2024-01-10T04:52:25;96075.38;;;-12.22;36.21
80164;BME280;70071;55.130;61.268;2024-01-10T04:54:51;96049.81;;;-12.91;36.43
80164;BME280;70071;55.130;61.268;2024-01-10T04:57:18;96098.00;;;-12.75;36.79
80164;BME280;70071;55.130;61.268;2024-01-10T04:59:44;96157.97;;;-12.10;37.13
80164;BME280;70071;55.130;61.268;2024-01-10T05:02:10;96171.19;;;-12.16;36.87
80164;BME280;70071;55.130;61.268;2024-01-10T05:04:36;96149.16;;;-12.88;37.41
80164;BME280;70071;55.130;61.268;2024-01-10T05:07:02;96181.91;;;-12.46;37.26
80164;BME280;70071;55.130;61.268;2024-01-10T05:09:28;96113.44;;;-12.41;36.71
80164;BME280;70071;55.130;61.268;2024-01-10T05:11:54;96177.09;;;-12.38;37.46
80164;BME280;70071;55.130;61.268;2024-01-10T05:14:20;96071.84;;;-12.55;37.19
80164;BME280;70071;55.130;61.268;2024-01-10T05:16:47;96151.94;;;-11.75;37.30
80164;BME280;70071;55.130;61.268;2024-01-10T05:19:13;96168.44;;;-12.02;37.28
80164;BME280;70071;55.130;61.268;2024-01-10T05:21:40;96057.38;;;-12.20;36.79
80164;BME280;70071;55.130;61.268;2024-01-10T05:24:06;96044.09;;;-12.48;36.23
80164;BME280;70071;55.130;61.268;2024-01-10T05:26:32;96182.94;;;-11.80;35.21
80164;BME280;70071;55.130;61.268;2024-01-10T05:28:59;96124.19;;;-12.02;35.67
80164;BME280;70071;55.130;61.268;2024-01-10T05:31:25;96110.56;;;-12.72;35.49
80164;BME280;70071;55.130;61.268;2024-01-10T05:33:51;96142.22;;;-12.51;36.04
80164;BME280;70071;55.130;61.268;2024-01-10T05:36:22;95985.84;;;-13.12;35.13
80164;BME280;70071;55.130;61.268;2024-01-10T05:38:50;96094.13;;;-12.92;35.46
80164;BME280;70071;55.130;61.268;2024-01-10T05:41:17;96087.72;;;-13.33;34.40
80164;BME280;70071;55.130;61.268;2024-01-10T05:44:10;96004.63;;;-13.84;35.87
80164;BME280;70071;55.130;61.268;2024-01-10T05:46:52;96183.31;;;-13.02;34.23
80164;BME280;70071;55.130;61.268;2024-01-10T05:49:18;96056.25;;;-12.74;33.58
80164;BME280;70071;55.130;61.268;2024-01-10T05:51:44;96194.03;;;-12.37;34.36
80164;BME280;70071;55.130;61.268;2024-01-10T05:54:24;96016.53;;;-13.61;34.39
80164;BME280;70071;55.130;61.268;2024-01-10T05:56:53;96174.78;;;-12.30;32.62
80164;BME280;70071;55.130;61.268;2024-01-10T05:59:23;96000.88;;;-12.85;33.21
80164;BME280;70071;55.130;61.268;2024-01-10T06:01:49;96055.28;;;-13.20;33.11
80164;BME280;70071;55.130;61.268;2024-01-10T06:04:15;96034.09;;;-13.93;32.96
80164;BME280;70071;55.130;61.268;2024-01-10T06:06:46;95988.53;;;-13.98;32.52
80164;BME280;70071;55.130;61.268;2024-01-10T06:09:14;96041.94;;;-13.35;33.01
80164;BME280;70071;55.130;61.268;2024-01-10T06:11:47;96019.06;;;-13.85;33.36
80164;BME280;70071;55.130;61.268;2024-01-10T06:14:14;96022.88;;;-14.53;34.19
80164;BME280;70071;55.130;61.268;2024-01-10T06:16:40;95992.63;;;-14.58;33.55
80164;BME280;70071;55.130;61.268;2024-01-10T06:19:06;96138.78;;;-14.09;33.82
80164;BME280;70071;55.130;61.268;2024-01-10T06:21:32;95987.28;;;-15.05;34.41
80164;BME280;70071;55.130;61.268;2024-01-10T06:23:59;95987.09;;;-15.55;33.61
80164;BME280;70071;55.130;61.268;2024-01-10T06:26:25;96147.56;;;-14.39;34.94
80164;BME280;70071;55.130;61.268;2024-01-10T06:29:00;96079.19;;;-14.19;34.91
80164;BME280;70071;55.130;61.268;2024-01-10T06:34:59;95979.75;;;-15.72;34.09
80164;BME280;70071;55.130;61.268;2024-01-10T06:37:31;95974.56;;;-14.79;32.66
80164;BME280;70071;55.130;61.268;2024-01-10T06:39:57;96017.31;;;-14.08;32.45
80164;BME280;70071;55.130;61.268;2024-01-10T06:42:35;95991.97;;;-14.23;32.03
80164;BME280;70071;55.130;61.268;2024-01-10T06:45:14;95970.31;;;-14.41;32.46
80164;BME280;70071;55.130;61.268;2024-01-10T06:48:03;96038.50;;;-14.71;32.31
80164;BME280;70071;55.130;61.268;2024-01-10T06:50:32;96055.13;;;-14.15;31.97
80164;BME280;70071;55.130;61.268;2024-01-10T06:53:13;96176.03;;;-14.59;33.06
80164;BME280;70071;55.130;61.268;2024-01-10T06:55:44;96045.88;;;-15.06;32.78
80164;BME280;70071;55.130;61.268;2024-01-10T07:01:54;96092.81;;;-14.59;32.77
80164;BME280;70071;55.130;61.268;2024-01-10T07:05:03;96155.34;;;-13.52;32.60
80164;BME280;70071;55.130;61.268;2024-01-10T07:08:53;95971.53;;;-13.73;31.83
80164;BME280;70071;55.130;61.268;2024-01-10T07:11:23;96050.28;;;-13.57;31.85
80164;BME280;70071;55.130;61.268;2024-01-10T07:14:23;96154.47;;;-12.91;32.78
80164;BME280;70071;55.130;61.268;2024-01-10T07:17:16;96189.84;;;-13.85;32.58
80164;BME280;70071;55.130;61.268;2024-01-10T07:20:12;96144.38;;;-13.91;31.79
80164;BME280;70071;55.130;61.268;2024-01-10T07:22:39;96164.53;;;-13.62;32.44
80164;BME280;70071;55.130;61.268;2024-01-10T07:25:08;96058.72;;;-14.56;32.48
80164;BME280;70071;55.130;61.268;2024-01-10T07:27:40;96043.03;;;-14.37;32.33
80164;BME280;70071;55.130;61.268;2024-01-10T07:30:07;96030.47;;;-14.64;33.50
80164;BME280;70071;55.130;61.268;2024-01-10T07:32:47;95991.66;;;-14.94;33.09
80164;BME280;70071;55.130;61.268;2024-01-10T07:35:34;96073.41;;;-13.12;33.05
80164;BME280;70071;55.130;61.268;2024-01-10T07:38:03;96136.13;;;-13.20;32.50
80164;BME280;70071;55.130;61.268;2024-01-10T07:40:29;95953.41;;;-14.05;33.05
80164;BME280;70071;55.130;61.268;2024-01-10T07:42:56;95954.94;;;-14.77;33.38
80164;BME280;70071;55.130;61.268;2024-01-10T07:45:27;96084.16;;;-13.19;33.32
80164;BME280;70071;55.130;61.268;2024-01-10T07:47:57;96159.47;;;-13.75;34.77
80164;BME280;70071;55.130;61.268;2024-01-10T07:51:22;96138.06;;;-13.24;35.08
80164;BME280;70071;55.130;61.268;2024-01-10T07:53:50;96149.00;;;-11.82;33.46
80164;BME280;70071;55.130;61.268;2024-01-10T07:56:17;96036.34;;;-13.29;33.43
80164;BME280;70071;55.130;61.268;2024-01-10T07:58:49;95948.91;;;-14.02;33.06
80164;BME280;70071;55.130;61.268;2024-01-10T08:01:15;96031.31;;;-14.40;33.72
80164;BME280;70071;55.130;61.268;2024-01-10T08:03:45;95969.28;;;-14.63;34.40
80164;BME280;70071;55.130;61.268;2024-01-10T08:06:13;95948.03;;;-13.89;32.92
80164;BME280;70071;55.130;61.268;2024-01-10T08:08:39;95977.53;;;-13.74;32.34
80164;BME280;70071;55.130;61.268;2024-01-10T08:11:05;96045.50;;;-13.99;32.05
80164;BME280;70071;55.130;61.268;2024-01-10T08:13:31;95957.38;;;-15.01;33.02
80164;BME280;70071;55.130;61.268;2024-01-10T08:16:03;95966.53;;;-15.11;33.63
80164;BME280;70071;55.130;61.268;2024-01-10T08:18:31;96153.00;;;-13.68;32.46
80164;BME280;70071;55.130;61.268;2024-01-10T08:21:00;95944.31;;;-15.35;33.16
80164;BME280;70071;55.130;61.268;2024-01-10T08:23:36;96062.38;;;-14.22;33.25
80164;BME280;70071;55.130;61.268;2024-01-10T08:26:02;96046.31;;;-13.61;32.60
80164;BME280;70071;55.130;61.268;2024-01-10T08:28:29;95934.63;;;-12.98;31.79
80164;BME280;70071;55.130;61.268;2024-01-10T08:30:55;96035.63;;;-13.90;31.30
80164;BME280;70071;55.130;61.268;2024-01-10T08:33:24;95952.63;;;-13.46;32.05
80164;BME280;70071;55.130;61.268;2024-01-10T08:35:52;95942.00;;;-13.06;30.75
80164;BME280;70071;55.130;61.268;2024-01-10T08:38:22;96055.63;;;-12.89;31.47
80164;BME280;70071;55.130;61.268;2024-01-10T08:40:48;95963.38;;;-14.02;30.77
80164;BME280;70071;55.130;61.268;2024-01-10T08:43:14;96074.16;;;-13.58;31.81
80164;BME280;70071;55.130;61.268;2024-01-10T08:45:43;95997.97;;;-14.11;32.29
80164;BME280;70071;55.130;61.268;2024-01-10T08:50:35;95942.69;;;-14.35;31.67
80164;BME280;70071;55.130;61.268;2024-01-10T08:53:03;96034.78;;;-13.91;32.75
80164;BME280;70071;55.130;61.268;2024-01-10T08:55:42;96124.69;;;-13.39;32.10
80164;BME280;70071;55.130;61.268;2024-01-10T08:58:08;96134.81;;;-12.78;32.30
80164;BME280;70071;55.130;61.268;2024-01-10T09:00:39;95968.19;;;-15.50;33.44
80164;BME280;70071;55.130;61.268;2024-01-10T09:03:12;96129.84;;;-14.15;33.40
80164;BME280;70071;55.130;61.268;2024-01-10T09:05:38;95950.47;;;-14.86;32.63
80164;BME280;70071;55.130;61.268;2024-01-10T09:08:04;96004.41;;;-13.57;31.81
80164;BME280;70071;55.130;61.268;2024-01-10T09:10:39;96122.72;;;-12.40;31.42
80164;BME280;70071;55.130;61.268;2024-01-10T09:13:05;95947.59;;;-13.83;31.40
80164;BME280;70071;55.130;61.268;2024-01-10T09:15:31;96051.75;;;-13.66;31.58
80164;BME280;70071;55.130;61.268;2024-01-10T09:17:58;96025.38;;;-13.78;32.09
80164;BME280;70071;55.130;61.268;2024-01-10T09:20:27;96137.31;;;-13.13;31.21
80164;BME280;70071;55.130;61.268;2024-01-10T09:22:55;96132.94;;;-13.11;31.34
80164;BME280;70071;55.130;61.268;2024-01-10T09:25:24;95967.06;;;-13.82;31.26
80164;BME280;70071;55.130;61.268;2024-01-10T09:27:50;95958.13;;;-14.49;32.75
80164;BME280;70071;55.130;61.268;2024-01-10T09:30:16;96095.56;;;-13.98;32.66
80164;BME280;70071;55.130;61.268;2024-01-10T09:32:44;96147.41;;;-12.88;32.76
80164;BME280;70071;55.130;61.268;2024-01-10T09:35:11;96069.59;;;-13.66;31.45
80164;BME280;70071;55.130;61.268;2024-01-10T09:37:38;95981.56;;;-13.59;31.75
80164;BME280;70071;55.130;61.268;2024-01-10T09:40:05;96162.28;;;-13.06;31.08
80164;BME280;70071;55.130;61.268;2024-01-10T09:42:35;96105.47;;;-13.56;31.42
80164;BME280;70071;55.130;61.268;2024-01-10T09:45:04;95985.56;;;-13.91;32.06
80164;BME280;70071;55.130;61.268;2024-01-10T09:47:56;96078.06;;;-13.41;31.20
80164;BME280;70071;55.130;61.268;2024-01-10T09:50:23;96004.28;;;-13.80;30.89
80164;BME280;70071;55.130;61.268;2024-01-10T09:52:58;96124.81;;;-12.81;31.63
80164;BME280;70071;55.130;61.268;2024-01-10T09:55:26;96089.22;;;-12.71;31.75
80164;BME280;70071;55.130;61.268;2024-01-10T09:58:27;96166.41;;;-12.32;30.97
80164;BME280;70071;55.130;61.268;2024-01-10T10:01:02;96081.66;;;-12.84;31.06
80164;BME280;70071;55.130;61.268;2024-01-10T10:03:44;96198.28;;;-11.91;30.23
80164;BME280;70071;55.130;61.268;2024-01-10T10:07:12;96018.97;;;-13.35;29.94
80164;BME280;70071;55.130;61.268;2024-01-10T10:10:08;96206.31;;;-12.07;29.11
80164;BME280;70071;55.130;61.268;2024-01-10T10:18:57;96072.28;;;-13.08;30.21
80164;BME280;70071;55.130;61.268;2024-01-10T10:21:47;96057.75;;;-13.07;29.59
80164;BME280;70071;55.130;61.268;2024-01-10T10:24:16;96050.66;;;-14.12;30.39
80164;BME280;70071;55.130;61.268;2024-01-10T10:27:09;96095.00;;;-14.53;32.38
80164;BME280;70071;55.130;61.268;2024-01-10T10:29:38;96117.81;;;-14.13;31.20
80164;BME280;70071;55.130;61.268;2024-01-10T10:32:07;96181.25;;;-12.97;30.59
80164;BME280;70071;55.130;61.268;2024-01-10T10:34:34;96132.69;;;-13.56;30.88
80164;BME280;70071;55.130;61.268;2024-01-10T10:37:01;96148.13;;;-13.71;30.85
80164;BME280;70071;55.130;61.268;2024-01-10T10:39:46;96176.47;;;-12.77;31.71
80164;BME280;70071;55.130;61.268;2024-01-10T10:42:15;96208.03;;;-12.78;31.30
80164;BME280;70071;55.130;61.268;2024-01-10T10:44:46;96122.50;;;-13.32;31.01
80164;BME280;70071;55.130;61.268;2024-01-10T10:47:16;96071.91;;;-14.00;31.45
80164;BME280;70071;55.130;61.268;2024-01-10T10:49:52;96264.91;;;-12.76;31.62
80164;BME280;70071;55.130;61.268;2024-01-10T10:52:26;96143.25;;;-13.37;31.94
80164;BME280;70071;55.130;61.268;2024-01-10T10:55:02;96145.81;;;-13.37;31.39
80164;BME280;70071;55.130;61.268;2024-01-10T11:04:15;96267.25;;;-11.67;30.24
80164;BME280;70071;55.130;61.268;2024-01-10T11:06:41;96079.63;;;-14.51;31.02
80164;BME280;70071;55.130;61.268;2024-01-10T11:09:22;96160.75;;;-13.32;31.02
80164;BME280;70071;55.130;61.268;2024-01-10T11:14:46;96247.44;;;-13.56;31.76
80164;BME280;70071;55.130;61.268;2024-01-10T11:21:10;96274.59;;;-13.55;32.81
80164;BME280;70071;55.130;61.268;2024-01-10T11:23:42;96286.63;;;-14.23;32.95
80164;BME280;70071;55.130;61.268;2024-01-10T11:26:13;96138.09;;;-15.03;33.21
80164;BME280;70071;55.130;61.268;2024-01-10T11:28:42;96249.66;;;-14.56;33.17
80164;BME280;70071;55.130;61.268;2024-01-10T11:31:08;96118.38;;;-15.53;33.13
80164;BME280;70071;55.130;61.268;2024-01-10T11:33:39;96267.66;;;-14.99;33.06
80164;BME280;70071;55.130;61.268;2024-01-10T11:36:16;96259.59;;;-15.21;33.79
80164;BME280;70071;55.130;61.268;2024-01-10T11:38:54;96180.59;;;-16.02;34.73
80164;BME280;70071;55.130;61.268;2024-01-10T11:46:41;96290.97;;;-13.85;34.54
80164;BME280;70071;55.130;61.268;2024-01-10T11:49:11;96238.81;;;-15.42;34.40
80164;BME280;70071;55.130;61.268;2024-01-10T11:51:38;96207.28;;;-14.57;34.37
80164;BME280;70071;55.130;61.268;2024-01-10T11:54:04;96292.56;;;-14.50;34.83
80164;BME280;70071;55.130;61.268;2024-01-10T11:56:42;96239.38;;;-14.95;34.39
80164;BME280;70071;55.130;61.268;2024-01-10T11:59:13;96173.53;;;-15.83;34.43
80164;BME280;70071;55.130;61.268;2024-01-10T12:01:42;96194.59;;;-16.54;34.76
80164;BME280;70071;55.130;61.268;2024-01-10T12:04:08;96217.06;;;-16.03;35.25
80164;BME280;70071;55.130;61.268;2024-01-10T12:06:37;96174.25;;;-16.99;36.63
80164;BME280;70071;55.130;61.268;2024-01-10T12:09:04;96233.03;;;-16.01;35.94
80164;BME280;70071;55.130;61.268;2024-01-10T12:11:34;96320.94;;;-15.99;37.15
80164;BME280;70071;55.130;61.268;2024-01-10T12:14:02;96231.41;;;-16.02;37.78
80164;BME280;70071;55.130;61.268;2024-01-10T12:16:28;96280.63;;;-16.19;38.56
80164;BME280;70071;55.130;61.268;2024-01-10T12:18:55;96320.81;;;-15.81;39.11
80164;BME280;70071;55.130;61.268;2024-01-10T12:21:22;96338.91;;;-15.28;37.72
80164;BME280;70071;55.130;61.268;2024-01-10T12:23:51;96205.78;;;-16.28;38.19
80164;BME280;70071;55.130;61.268;2024-01-10T12:26:18;96260.94;;;-16.16;39.09
80164;BME280;70071;55.130;61.268;2024-01-10T12:29:00;96164.88;;;-16.83;38.90
80164;BME280;70071;55.130;61.268;2024-01-10T12:31:30;96213.41;;;-16.14;38.79
80164;BME280;70071;55.130;61.268;2024-01-10T12:33:57;96284.13;;;-16.36;39.27
80164;BME280;70071;55.130;61.268;2024-01-10T12:36:23;96162.06;;;-17.23;38.66
80164;BME280;70071;55.130;61.268;2024-01-10T12:38:52;96240.81;;;-16.49;38.92
80164;BME280;70071;55.130;61.268;2024-01-10T12:41:21;96364.59;;;-15.92;40.53
80164;BME280;70071;55.130;61.268;2024-01-10T12:43:54;96257.78;;;-16.50;39.82
80164;BME280;70071;55.130;61.268;2024-01-10T12:46:23;96361.69;;;-16.16;39.97
80164;BME280;70071;55.130;61.268;2024-01-10T12:49:03;96349.88;;;-14.99;39.60
80164;BME280;70071;55.130;61.268;2024-01-10T12:51:32;96325.00;;;-16.73;41.57
80164;BME280;70071;55.130;61.268;2024-01-10T12:53:59;96248.31;;;-17.24;41.17
80164;BME280;70071;55.130;61.268;2024-01-10T12:56:27;96257.56;;;-17.07;42.67
80164;BME280;70071;55.130;61.268;2024-01-10T12:58:53;96292.41;;;-16.81;41.62
80164;BME280;70071;55.130;61.268;2024-01-10T13:01:23;96321.31;;;-16.83;41.48
80164;BME280;70071;55.130;61.268;2024-01-10T13:03:50;96392.19;;;-16.96;43.23
80164;BME280;70071;55.130;61.268;2024-01-10T13:06:22;96335.78;;;-16.85;42.12
80164;BME280;70071;55.130;61.268;2024-01-10T13:08:52;96250.06;;;-18.08;43.05
80164;BME280;70071;55.130;61.268;2024-01-10T13:11:20;96222.44;;;-17.63;42.28
80164;BME280;70071;55.130;61.268;2024-01-10T13:13:46;96229.38;;;-17.50;42.23
80164;BME280;70071;55.130;61.268;2024-01-10T13:16:13;96402.56;;;-15.30;40.22
80164;BME280;70071;55.130;61.268;2024-01-10T13:19:04;96403.66;;;-16.57;39.30
80164;BME280;70071;55.130;61.268;2024-01-10T13:21:38;96409.69;;;-16.59;39.83
80164;BME280;70071;55.130;61.268;2024-01-10T13:24:11;96230.38;;;-17.53;39.26
80164;BME280;70071;55.130;61.268;2024-01-10T13:26:37;96320.00;;;-17.22;40.20
80164;BME280;70071;55.130;61.268;2024-01-10T13:29:13;96415.28;;;-16.53;40.01